ADDS METAR Data INFO
IDs: Format: Raw Decoded Include TAF

Data at: 0149 UTC 21 Apr 2018

KRWV 210135Z AUTO 11003KT 10SM CLR 14/08 A3010 RMK AO2 T01440080
KRWV 210115Z AUTO 09004KT 10SM CLR 15/08 A3009 RMK AO2 T01510080
KRWV 210055Z AUTO 10005KT 10SM CLR 16/08 A3010 RMK AO2 T01580078
KRWV 210035Z AUTO 12007KT 10SM CLR 16/08 A3011 RMK AO2 T01650078
KRWV 210015Z AUTO 13007KT 10SM CLR 17/08 A3011 RMK AO2 T01720078
KRWV 202355Z AUTO 12008KT 10SM CLR 17/08 A3010 RMK AO2 T01750077 10195 20161 402070118
KRWV 202335Z AUTO 12009KT 10SM CLR 17/08 A3011 RMK AO2 T01750077
KRWV 202315Z AUTO 12011KT 10SM CLR 18/08 A3011 RMK AO2 T01820078
KRWV 202255Z AUTO 14010KT 10SM CLR 18/07 A3012 RMK AO2 LTG DSNT NW T01760075
KRWV 202235Z AUTO 14010KT 10SM CLR 18/07 A3012 RMK AO2 T01770074
KRWV 202215Z AUTO 14010KT 10SM CLR 18/08 A3013 RMK AO2 T01780079
KRWV 202155Z AUTO 16008KT 10SM CLR 18/07 A3014 RMK AO2 T01780071
KRWV 202135Z AUTO 13009KT 10SM CLR 18/07 A3014 RMK AO2 T01840072
KRWV 202115Z AUTO 15009KT 10SM CLR 18/07 A3015 RMK AO2
KRWV 202055Z AUTO 16008KT 10SM CLR 19/07 A3016 RMK AO2 T01860072
KRWV 202035Z AUTO 11008KT 10SM CLR 19/06 A3016 RMK AO2 T01870063
KRWV 202015Z AUTO 11009KT 10SM CLR 19/06 A3017 RMK AO2 T01880062
KRWV 201955Z AUTO 09007KT 070V130 10SM CLR 19/06 A3017 RMK AO2 T01880057
KRWV 201935Z AUTO 10009G14KT 10SM CLR 19/06 A3018 RMK AO2 T01880056
KRWV 201915Z AUTO 08012KT 10SM CLR 18/06 A3018 RMK AO2
KRWV 201855Z AUTO 11009KT 060V130 10SM CLR 18/06 A3020 RMK AO2 T01810057
KRWV 201835Z AUTO 10010G15KT 10SM CLR 17/04 A3022 RMK AO2 T01690045
KRWV 201815Z AUTO 12008KT 090V150 10SM CLR 17/05 A3024 RMK AO2 T01690048
KRWV 201755Z AUTO 11011G17KT 10SM CLR 17/05 A3024 RMK AO2 T01660047 10172 20121
KRWV 201735Z AUTO 11011G17KT 10SM CLR 17/05 A3025 RMK AO2 T01680053
KRWV 201715Z AUTO 12010KT 10SM CLR 16/05 A3027 RMK AO2 T01600051
KRWV 201655Z AUTO 10007KT 10SM CLR 16/05 A3028 RMK AO2 T01590052
KRWV 201635Z AUTO 10008KT 070V140 10SM CLR 16/05 A3029 RMK AO2 T01590047
KRWV 201615Z AUTO 11010G16KT 10SM CLR 15/04 A3029 RMK AO2 T01520039
KRWV 201555Z AUTO 10008KT 10SM CLR 15/04 A3028 RMK AO2 T01530042
KRWV 201535Z AUTO 11012KT 10SM CLR 16/05 A3029 RMK AO2 T01630046
KRWV 201515Z AUTO 10008KT 10SM CLR 15/04 A3029 RMK AO2 T01530045
KRWV 201455Z AUTO 08010G14KT 10SM CLR 15/04 A3029 RMK AO2 T01480044
KRWV 201435Z AUTO 10013G17KT 10SM CLR 14/04 A3028 RMK AO2 T01390038
KRWV 201415Z AUTO 10012G17KT 10SM CLR 13/04 A3027 RMK AO2 T01350044
KRWV 201355Z AUTO 11009KT 10SM CLR 13/05 A3028 RMK AO2 T01260048
KRWV 201335Z AUTO 10009KT 10SM CLR 12/05 A3028 RMK AO2 T01220052
KRWV 201315Z AUTO 11008KT 10SM CLR 12/06 A3028 RMK AO2 T01230055
KRWV 201255Z AUTO 10008KT 10SM CLR 12/06 A3027 RMK AO2 T01220056
KRWV 201235Z AUTO 09008KT 10SM CLR 12/06 A3028 RMK AO2 T01220063
KRWV 201215Z AUTO 09008KT 10SM CLR 12/07 A3025 RMK AO2 T01230067
KRWV 201155Z AUTO 10008KT 10SM CLR 12/07 A3024 RMK AO2 T01230071 10140 20118
KRWV 201135Z AUTO 08007KT 030V100 10SM CLR 12/07 A3023 RMK AO2 T01240072
KRWV 201115Z AUTO 08006KT 10SM CLR 12/07 A3023 RMK AO2 T01250071
KRWV 201055Z AUTO 07005KT 10SM CLR 12/07 A3022 RMK AO2 T01240070
KRWV 201035Z AUTO 07004KT 10SM CLR 12/07 A3022 RMK AO2 T01210070
KRWV 201015Z AUTO 06005KT 10SM CLR 12/07 A3021 RMK AO2 T01180069
KRWV 200955Z AUTO 04004KT 10SM CLR 12/07 A3021 RMK AO2 T01200069
KRWV 200935Z AUTO 06004KT 10SM CLR 12/07 A3021 RMK AO2 T01250066
KRWV 200915Z AUTO 03004KT 10SM CLR 13/07 A3021 RMK AO2 T01260066
KRWV 200855Z AUTO 05004KT 10SM CLR 12/07 A3022 RMK AO2 T01230066
KRWV 200835Z AUTO 05003KT 10SM CLR 12/06 A3022 RMK AO2 T01250064
KRWV 200815Z AUTO 04005KT 10SM CLR 13/06 A3022 RMK AO2 T01280062
KRWV 200755Z AUTO 04004KT 10SM CLR 13/06 A3021 RMK AO2 T01280063
KRWV 200735Z AUTO 04006KT 10SM CLR 13/06 A3021 RMK AO2 T01310061
KRWV 200715Z AUTO 01003KT 10SM CLR 13/06 A3024 RMK AO2 T01310062
KRWV 200655Z AUTO 05004KT 10SM CLR 14/06 A3022 RMK AO2 T01360061
KRWV 200635Z AUTO 02003KT 10SM CLR 13/06 A3024 RMK AO2 T01340061
KRWV 200615Z AUTO 02004KT 10SM CLR 14/06 A3023 RMK AO2 T01360059
KRWV 200555Z AUTO 02004KT 10SM CLR 14/06 A3024 RMK AO2 T01390061 10207 20139
KRWV 200535Z AUTO 02004KT 10SM CLR 14/06 A3024 RMK AO2 T01440060
KRWV 200515Z AUTO 03004KT 10SM CLR 14/06 A3023 RMK AO2 T01430062
KRWV 200455Z AUTO 01005KT 10SM CLR 14/06 A3024 RMK AO2 T01420062
KRWV 200435Z AUTO 03004KT 10SM CLR 14/06 A3023 RMK AO2 T01430060
KRWV 200415Z AUTO 01005KT 10SM CLR 14/06 A3024 RMK AO2 T01430059
KRWV 200355Z AUTO 36005KT 10SM CLR 14/06 A3025 RMK AO2 T01440059
KRWV 200335Z AUTO 36006KT 10SM CLR 15/06 A3025 RMK AO2 T01460058
KRWV 200315Z AUTO 36005KT 10SM CLR 14/06 A3025 RMK AO2 T01440060
KRWV 200255Z AUTO 35005KT 10SM CLR 15/06 A3025 RMK AO2 T01460061
KRWV 200235Z AUTO 36005KT 10SM CLR 15/06 A3025 RMK AO2 T01520060
KRWV 200215Z AUTO 36006KT 10SM CLR 15/06 A3024 RMK AO2 T01510061
KRWV 200155Z AUTO 36005KT 10SM CLR 16/06 A3024 RMK AO2 T01610060
KRWV 200135Z AUTO 36005KT 10SM CLR 17/06 A3023 RMK AO2 T01690059
KRWV 200115Z AUTO 36004KT 10SM CLR 17/06 A3023 RMK AO2 T01740058
KRWV 200055Z AUTO 35005KT 10SM CLR 18/06 A3023 RMK AO2 T01830055
KRWV 200035Z AUTO 35007KT 10SM CLR 19/06 A3023 RMK AO2 T01900056
KRWV 200015Z AUTO 35008KT 10SM CLR 20/05 A3023 RMK AO2 T01970053
KRWV 192355Z AUTO 35010KT 10SM CLR 21/05 A3022 RMK AO2 T02100055 10241 20208 402450129
KRWV 192335Z AUTO 36007KT 10SM CLR 21/05 A3023 RMK AO2 T02110048
KRWV 192315Z AUTO 02006KT 10SM CLR 22/04 A3022 RMK AO2 T02190035
KRWV 192255Z AUTO 01008KT 10SM CLR 22/03 A3023 RMK AO2 T02180030
KRWV 192235Z AUTO 01008KT 10SM CLR 23/04 A3023 RMK AO2 T02260037
KRWV 192215Z AUTO 02007KT 10SM CLR 22/03 A3023 RMK AO2 T02200028
KRWV 192155Z AUTO 01007KT 350V050 10SM CLR 23/03 A3023 RMK AO2 T02260026
KRWV 192135Z AUTO 03011G14KT 10SM CLR 23/03 A3023 RMK AO2 T02330030
KRWV 192115Z AUTO 36013G17KT 10SM CLR 24/04 A3023 RMK AO2 T02360037
KRWV 192055Z AUTO 02009KT 10SM CLR 24/04 A3024 RMK AO2 T02380041
KRWV 192035Z AUTO 03008G19KT 350V060 10SM CLR 24/03 A3025 RMK AO2 T02360033
KRWV 192015Z AUTO 02009G16KT 350V060 10SM CLR 24/03 A3026 RMK AO2 T02380028
KRWV 191955Z AUTO 02013G17KT 10SM CLR 23/03 A3027 RMK AO2 T02340028
KRWV 191935Z AUTO 05010G15KT 010V080 10SM CLR 23/03 A3028 RMK AO2 T02300033
KRWV 191915Z AUTO 03011G18KT 10SM CLR 23/03 A3028 RMK AO2 T02290026
KRWV 191855Z AUTO 36011G18KT 10SM CLR 23/03 A3029 RMK AO2 T02310030
KRWV 191835Z AUTO 05010G20KT 10SM CLR 22/02 A3030 RMK AO2 T02250017
KRWV 191815Z AUTO 04010G19KT 010V080 10SM CLR 23/02 A3031 RMK AO2 T02260025
KRWV 191755Z AUTO 01014G19KT 10SM CLR 23/02 A3031 RMK AO2 T02250023 10229 20129
KRWV 191735Z AUTO 04009G17KT 10SM CLR 22/02 A3033 RMK AO2 T02210021
KRWV 191715Z AUTO 02012G19KT 10SM CLR 22/02 A3033 RMK AO2 T02240024
KRWV 191655Z AUTO 03011G17KT 360V070 10SM CLR 22/03 A3033 RMK AO2 T02180026
KRWV 191635Z AUTO 05011G16KT 10SM CLR 22/02 A3033 RMK AO2 T02190024
KRWV 191615Z AUTO 03008G21KT 10SM CLR 21/01 A3033 RMK AO2 T02090012
KRWV 191555Z AUTO 03011G16KT 010V070 10SM CLR 20/02 A3033 RMK AO2 T02040017
KRWV 191535Z AUTO 04011G16KT 010V090 10SM CLR 20/02 A3033 RMK AO2 T01960020
KRWV 191515Z AUTO 04010G19KT 020V080 10SM CLR 19/01 A3032 RMK AO2 T01910014
KRWV 191455Z AUTO 04010G17KT 030V090 10SM CLR 18/01 A3033 RMK AO2 T01820009
KRWV 191435Z AUTO 03011G17KT 10SM CLR 17/01 A3032 RMK AO2 T01730014
KRWV 191415Z AUTO 03007G17KT 10SM CLR 16/02 A3032 RMK AO2 T01630021
KRWV 191355Z AUTO 04009KT 010V070 10SM CLR 16/02 A3032 RMK AO2 T01570018